Time;durP1;ratioP1;P1;durP2;ratioP2;P2;SDS_P1;SDS_P2;PMS_P1;PMS_P2;Temp;Humidity;BMP_temperature;BMP_pressure;BME280_temperature;BME280_humidity;BME280_pressure;Samples;Min_cycle;Max_cycle;Signal;HPM_P1;HPM_P2
2022/12/25 00:01:19;;;;;;;15.00;4.28;;;6.90;99.90;;;;;;4973086;28;20554;-79
2022/12/25 00:03:46;;;;;;;18.55;4.47;;;6.90;99.90;;;;;;4980825;28;20148;-79
2022/12/25 00:06:12;;;;;;;18.90;5.15;;;6.90;99.90;;;;;;5020239;28;20491;-80
2022/12/25 00:08:40;;;;;;;17.27;6.47;;;6.90;99.90;;;;;;4986641;28;20084;-79
2022/12/25 00:11:11;;;;;;;20.15;6.10;;;6.90;99.90;;;;;;4984559;28;20620;-79
2022/12/25 00:13:37;;;;;;;18.52;6.55;;;6.90;99.90;;;;;;4970596;28;20034;-79
2022/12/25 00:16:09;;;;;;;15.95;6.85;;;6.90;99.90;;;;;;4992137;28;20065;-79
2022/12/25 00:18:35;;;;;;;18.50;7.00;;;6.80;99.90;;;;;;4984290;28;20264;-79
2022/12/25 00:21:05;;;;;;;13.15;6.07;;;6.80;99.90;;;;;;4976206;28;20038;-79
2022/12/25 00:23:32;;;;;;;14.90;5.38;;;6.70;99.90;;;;;;4968279;28;20096;-78
2022/12/25 00:25:58;;;;;;;9.63;5.13;;;6.70;99.90;;;;;;4984938;28;20039;-81
2022/12/25 00:28:25;;;;;;;26.35;5.93;;;6.60;99.90;;;;;;4973201;28;20038;-82
2022/12/25 00:30:51;;;;;;;10.85;5.38;;;6.60;99.90;;;;;;4994187;28;20041;-80
2022/12/25 00:33:17;;;;;;;18.70;5.72;;;6.60;99.90;;;;;;4974563;28;20030;-81
2022/12/25 00:35:43;;;;;;;12.98;4.72;;;6.60;99.90;;;;;;4989642;28;20050;-79
2022/12/25 00:38:09;;;;;;;15.98;5.05;;;6.60;99.90;;;;;;4974589;28;20038;-80
2022/12/25 00:40:42;;;;;;;11.80;4.80;;;6.60;99.90;;;;;;4974442;28;20065;-79
2022/12/25 00:43:08;;;;;;;13.02;4.30;;;6.60;99.90;;;;;;4995956;28;20031;-79
2022/12/25 00:45:35;;;;;;;20.17;4.82;;;6.50;99.90;;;;;;4995181;28;20049;-82
2022/12/25 00:48:00;;;;;;;24.25;5.10;;;6.50;99.90;;;;;;4997143;28;20109;-80
2022/12/25 00:50:26;;;;;;;14.35;4.57;;;6.60;99.90;;;;;;4981083;28;20081;-80
2022/12/25 00:52:52;;;;;;;18.67;4.93;;;6.60;99.90;;;;;;4976882;28;20042;-79
2022/12/25 00:55:18;;;;;;;18.10;4.78;;;6.60;99.90;;;;;;4991992;28;20331;-81
2022/12/25 00:57:43;;;;;;;13.10;5.07;;;6.60;99.90;;;;;;4978373;28;20105;-79
2022/12/25 01:00:10;;;;;;;15.05;5.10;;;6.60;99.90;;;;;;4977572;28;20039;-82
2022/12/25 01:02:36;;;;;;;17.55;4.82;;;6.60;99.90;;;;;;4976954;28;20041;-81
2022/12/25 01:05:01;;;;;;;16.50;4.50;;;6.60;99.90;;;;;;5000788;28;20113;-79
2022/12/25 01:07:28;;;;;;;24.75;5.15;;;6.60;99.90;;;;;;5000281;28;20034;-79
2022/12/25 01:12:41;;;;;;;11.60;5.50;;;6.60;99.90;;;;;;4991987;28;20036;-81
2022/12/25 01:15:09;;;;;;;19.42;6.07;;;6.60;99.90;;;;;;4975840;28;20042;-78
2022/12/25 01:17:35;;;;;;;15.35;6.10;;;6.60;99.90;;;;;;4998487;28;20060;-80
2022/12/25 01:20:01;;;;;;;16.50;6.40;;;6.70;99.90;;;;;;5001466;28;20058;-78
2022/12/25 01:22:27;;;;;;;19.15;7.70;;;6.70;99.90;;;;;;4990638;28;20038;-80
2022/12/25 01:24:53;;;;;;;14.57;7.25;;;6.60;99.90;;;;;;4995735;28;20034;-82
2022/12/25 01:27:19;;;;;;;19.40;6.40;;;6.60;99.90;;;;;;4996948;28;20410;-80
2022/12/25 01:29:46;;;;;;;16.85;6.25;;;6.50;99.90;;;;;;4989745;28;20106;-80
2022/12/25 01:32:12;;;;;;;15.60;5.88;;;6.50;99.90;;;;;;4974011;28;20038;-81
2022/12/25 01:34:37;;;;;;;18.58;5.60;;;6.50;99.90;;;;;;5000829;28;20038;-79
2022/12/25 01:37:03;;;;;;;16.13;5.57;;;6.50;99.90;;;;;;4993070;28;20100;-79
2022/12/25 01:39:29;;;;;;;16.75;5.97;;;6.50;99.90;;;;;;4992825;28;20085;-80
2022/12/25 01:41:55;;;;;;;10.48;5.03;;;6.40;99.90;;;;;;4989197;28;20105;-79
2022/12/25 01:44:36;;;;;;;20.23;5.60;;;6.50;99.90;;;;;;4996041;28;20073;-77
2022/12/25 01:47:06;;;;;;;13.27;5.40;;;6.50;99.90;;;;;;4989829;28;20049;-80
2022/12/25 01:49:35;;;;;;;13.20;4.93;;;6.50;99.90;;;;;;4976121;28;20038;-82
2022/12/25 01:52:09;;;;;;;17.92;4.72;;;6.40;99.90;;;;;;4992955;28;20065;-79
2022/12/25 01:54:40;;;;;;;22.77;5.30;;;6.40;99.90;;;;;;4999935;28;20037;-79
2022/12/25 01:57:15;;;;;;;11.77;4.72;;;6.40;99.90;;;;;;4978929;28;20041;-79
2022/12/25 01:59:41;;;;;;;16.05;5.13;;;6.40;99.90;;;;;;4972865;28;20026;-81
2022/12/25 02:02:07;;;;;;;15.55;5.13;;;6.30;99.90;;;;;;4959734;28;20125;-81
2022/12/25 02:04:42;;;;;;;15.32;5.80;;;6.30;99.90;;;;;;4981564;28;20096;-78
2022/12/25 02:07:19;;;;;;;8.50;4.90;;;6.30;99.90;;;;;;4988633;28;20430;-80
2022/12/25 02:09:47;;;;;;;13.20;5.15;;;6.30;99.90;;;;;;4975507;28;20697;-79
2022/12/25 02:12:18;;;;;;;20.90;5.93;;;6.30;99.90;;;;;;4992457;28;20031;-78
2022/12/25 02:14:45;;;;;;;16.17;5.55;;;6.20;99.90;;;;;;4991136;28;20030;-79
2022/12/25 02:17:32;;;;;;;11.65;5.00;;;6.30;99.90;;;;;;4999771;28;20049;-79
2022/12/25 02:20:35;;;;;;;14.88;5.13;;;6.20;99.90;;;;;;5014489;28;20682;-80
2022/12/25 02:23:39;;;;;;;21.40;6.05;;;6.20;99.90;;;;;;4984778;28;20129;-81
2022/12/25 02:26:24;;;;;;;16.00;5.15;;;6.10;99.90;;;;;;5005081;28;20037;-82
2022/12/25 02:29:18;;;;;;;11.55;4.65;;;6.10;99.90;;;;;;5000667;28;20030;-79
2022/12/25 02:32:01;;;;;;;14.55;4.63;;;6.10;99.90;;;;;;4992971;28;20040;-79
2022/12/25 02:34:34;;;;;;;15.43;4.95;;;6.10;99.90;;;;;;5010467;28;20094;-79
2022/12/25 02:37:06;;;;;;;9.30;4.22;;;6.10;99.90;;;;;;4989178;28;20109;-79
2022/12/25 02:40:19;;;;;;;16.92;5.38;;;6.20;99.90;;;;;;4995994;28;20046;-80
2022/12/25 03:08:46;;;;;;;19.02;5.40;;;6.10;99.90;;;;;;4997720;28;20438;-80
2022/12/25 03:11:31;;;;;;;12.85;5.55;;;6.10;99.90;;;;;;4985904;28;20504;-80
2022/12/25 03:16:53;;;;;;;12.90;4.97;;;6.10;99.90;;;;;;4983382;28;20030;-80
2022/12/25 03:27:42;;;;;;;10.90;4.68;;;6.00;99.90;;;;;;5020748;28;20033;-79
2022/12/25 03:33:06;;;;;;;11.37;5.47;;;6.00;99.90;;;;;;4999031;28;20041;-81
2022/12/25 03:36:05;;;;;;;14.00;5.00;;;6.00;99.90;;;;;;4991415;28;20265;-81
2022/12/25 04:37:26;;;;;;;11.82;5.13;;;6.20;99.90;;;;;;5010092;28;20030;-80
2022/12/25 04:39:52;;;;;;;12.15;4.80;;;6.20;99.90;;;;;;4995023;28;20034;-79
2022/12/25 04:42:18;;;;;;;10.25;5.30;;;6.20;99.90;;;;;;4987213;28;20030;-79
2022/12/25 04:44:44;;;;;;;16.45;6.32;;;6.20;99.90;;;;;;4988239;28;20034;-79
2022/12/25 04:47:11;;;;;;;12.13;6.75;;;6.30;99.90;;;;;;4982791;28;20105;-81
2022/12/25 04:49:38;;;;;;;18.38;7.07;;;6.40;99.90;;;;;;4985181;28;20028;-79
2022/12/25 04:52:04;;;;;;;11.38;6.68;;;6.40;99.90;;;;;;4992370;28;20030;-79
2022/12/25 04:54:29;;;;;;;13.60;6.80;;;6.40;99.90;;;;;;4987452;28;20033;-79
2022/12/25 04:56:56;;;;;;;16.40;6.85;;;6.40;99.90;;;;;;4985640;28;20041;-79
2022/12/25 04:59:22;;;;;;;15.05;7.20;;;6.40;99.90;;;;;;4989614;28;20030;-79
2022/12/25 05:01:48;;;;;;;9.65;6.18;;;6.40;99.90;;;;;;4996756;28;20038;-79
2022/12/25 05:04:33;;;;;;;12.27;6.68;;;6.40;99.90;;;;;;4996702;28;20713;-80
2022/12/25 05:06:58;;;;;;;15.32;6.50;;;6.40;99.90;;;;;;4996879;28;20061;-81
2022/12/25 05:09:25;;;;;;;10.73;5.57;;;6.40;99.90;;;;;;4984043;28;20549;-79
2022/12/25 05:11:51;;;;;;;13.10;5.72;;;6.30;99.90;;;;;;4975208;28;20765;-79
2022/12/25 05:14:17;;;;;;;11.73;6.05;;;6.30;99.90;;;;;;5001713;28;20034;-78
2022/12/25 05:16:43;;;;;;;13.57;5.22;;;6.30;99.90;;;;;;4991451;28;20022;-78
2022/12/25 05:19:09;;;;;;;11.65;6.07;;;6.30;99.90;;;;;;4993121;28;20530;-79
2022/12/25 05:21:35;;;;;;;7.43;5.43;;;6.20;99.90;;;;;;4966013;28;20414;-78
2022/12/25 05:24:01;;;;;;;10.85;5.50;;;6.10;99.90;;;;;;4953292;28;20042;-78
2022/12/25 05:26:27;;;;;;;11.13;5.10;;;6.10;99.90;;;;;;4984139;28;20053;-79
2022/12/25 05:28:53;;;;;;;14.05;5.72;;;6.10;99.90;;;;;;4988381;28;20030;-79
2022/12/25 05:31:20;;;;;;;9.68;5.28;;;6.10;99.90;;;;;;4995310;28;20113;-78
2022/12/25 05:33:49;;;;;;;11.20;5.20;;;6.10;99.90;;;;;;4986571;28;20104;-80
2022/12/25 05:36:16;;;;;;;10.70;5.10;;;6.00;99.90;;;;;;4991822;28;20079;-78
2022/12/25 05:38:42;;;;;;;7.95;5.15;;;6.00;99.90;;;;;;4995696;28;20057;-78
2022/12/25 05:41:08;;;;;;;9.40;6.15;;;6.00;99.90;;;;;;4994292;28;20054;-78
2022/12/25 05:43:34;;;;;;;10.98;5.68;;;5.90;99.90;;;;;;4991373;28;20041;-78
2022/12/25 05:46:05;;;;;;;11.75;5.75;;;5.80;99.90;;;;;;4993672;28;20065;-80
2022/12/25 05:48:32;;;;;;;11.02;6.30;;;5.80;99.90;;;;;;4989432;28;20034;-79
2022/12/25 05:51:06;;;;;;;11.98;6.57;;;5.80;99.90;;;;;;4989314;28;20022;-79
2022/12/25 05:53:32;;;;;;;11.30;6.55;;;5.80;99.90;;;;;;4992873;28;20166;-79
2022/12/25 05:56:01;;;;;;;10.15;6.35;;;5.80;99.90;;;;;;4987849;28;20030;-80
2022/12/25 05:58:28;;;;;;;11.10;6.22;;;5.80;99.90;;;;;;4992330;28;20030;-79
2022/12/25 06:00:54;;;;;;;10.95;6.70;;;5.80;99.90;;;;;;4990713;28;20026;-79
2022/12/25 06:03:21;;;;;;;12.15;6.50;;;5.70;99.90;;;;;;4981003;28;20038;-79
2022/12/25 06:05:47;;;;;;;12.05;6.70;;;5.70;99.90;;;;;;5001279;28;20022;-80
2022/12/25 06:08:13;;;;;;;9.95;5.97;;;5.60;99.90;;;;;;5009697;28;20041;-80
2022/12/25 06:10:39;;;;;;;8.98;5.63;;;5.60;99.90;;;;;;4977162;28;20014;-81
2022/12/25 06:13:05;;;;;;;10.60;5.47;;;5.50;99.90;;;;;;4983825;28;20022;-79
2022/12/25 06:15:31;;;;;;;7.78;5.32;;;5.40;99.90;;;;;;4984401;28;20121;-80
2022/12/25 06:18:00;;;;;;;11.07;5.85;;;5.40;99.90;;;;;;4988814;28;20034;-78
2022/12/25 06:20:27;;;;;;;12.20;5.45;;;5.20;99.90;;;;;;4990532;28;20034;-79
2022/12/25 06:22:53;;;;;;;8.27;4.85;;;5.10;99.90;;;;;;4979718;28;20042;-79
2022/12/25 06:25:18;;;;;;;7.55;4.72;;;4.90;99.90;;;;;;4991243;28;20122;-78
2022/12/25 06:27:44;;;;;;;9.65;5.25;;;4.90;99.90;;;;;;4997221;28;20040;-78
2022/12/25 06:30:11;;;;;;;12.88;5.40;;;4.90;99.90;;;;;;4981951;28;20088;-79
2022/12/25 06:32:36;;;;;;;7.05;5.13;;;4.90;99.90;;;;;;4965742;28;20034;-79
2022/12/25 06:35:02;;;;;;;10.45;5.18;;;4.80;99.90;;;;;;4991583;28;20478;-78
2022/12/25 06:37:29;;;;;;;8.45;5.32;;;4.70;99.90;;;;;;4973481;28;20041;-79
2022/12/25 06:39:55;;;;;;;11.25;5.35;;;4.70;99.90;;;;;;4988416;28;20050;-78
2022/12/25 06:42:21;;;;;;;13.02;7.35;;;4.70;99.90;;;;;;5027219;28;20057;-79
2022/12/25 06:44:47;;;;;;;14.80;8.23;;;4.80;99.90;;;;;;4990757;28;20034;-79
2022/12/25 06:47:13;;;;;;;20.30;8.82;;;4.90;99.90;;;;;;4984962;28;20345;-79
2022/12/25 06:49:38;;;;;;;17.92;9.15;;;5.00;99.90;;;;;;4989297;28;20042;-79
2022/12/25 06:52:04;;;;;;;13.10;6.93;;;5.00;99.90;;;;;;4967920;28;20125;-80
2022/12/25 06:54:30;;;;;;;13.85;8.50;;;5.00;99.90;;;;;;4989949;28;20247;-77
2022/12/25 06:56:56;;;;;;;17.73;8.40;;;5.10;99.90;;;;;;4989028;28;20121;-79
2022/12/25 06:59:22;;;;;;;18.75;9.40;;;5.20;99.90;;;;;;4958672;28;20033;-78
2022/12/25 07:01:54;;;;;;;19.58;8.80;;;5.30;99.90;;;;;;5007989;28;20048;-79
2022/12/25 07:04:37;;;;;;;14.48;7.93;;;5.40;99.90;;;;;;4994309;28;20041;-79
2022/12/25 07:07:05;;;;;;;16.55;8.60;;;5.50;99.90;;;;;;4989758;28;20046;-79
2022/12/25 07:09:31;;;;;;;17.02;8.43;;;5.50;99.90;;;;;;4997431;28;20050;-80
2022/12/25 07:12:12;;;;;;;14.48;8.45;;;5.60;99.90;;;;;;4959470;28;20037;-79
2022/12/25 07:14:42;;;;;;;14.68;8.00;;;5.60;99.90;;;;;;5008139;28;20080;-81
2022/12/25 07:17:07;;;;;;;16.23;8.73;;;5.50;99.90;;;;;;4962151;28;20121;-80
2022/12/25 07:19:33;;;;;;;14.70;8.20;;;5.50;99.90;;;;;;4995174;28;20034;-80
2022/12/25 07:21:59;;;;;;;16.02;9.32;;;5.50;99.90;;;;;;4991203;28;20045;-79
2022/12/25 07:24:25;;;;;;;15.25;8.10;;;5.50;99.90;;;;;;4982860;28;20058;-83
2022/12/25 07:26:52;;;;;;;13.98;7.82;;;5.50;99.90;;;;;;4964274;28;20087;-80
2022/12/25 07:29:18;;;;;;;12.48;6.90;;;5.50;99.90;;;;;;4988792;28;20034;-81
2022/12/25 07:31:45;;;;;;;11.75;7.05;;;5.50;99.90;;;;;;4973248;28;20031;-81
2022/12/25 07:34:11;;;;;;;14.07;6.72;;;5.50;99.90;;;;;;4992280;28;20339;-82
2022/12/25 07:36:36;;;;;;;18.40;7.47;;;5.50;99.90;;;;;;4971776;28;20031;-81
2022/12/25 07:39:02;;;;;;;11.85;7.07;;;5.50;99.90;;;;;;4987583;28;20037;-81
2022/12/25 07:41:28;;;;;;;15.32;7.07;;;5.50;99.90;;;;;;4991541;28;20094;-81
2022/12/25 07:44:12;;;;;;;13.70;6.95;;;5.40;99.90;;;;;;4976252;28;20216;-80
2022/12/25 07:46:38;;;;;;;14.70;7.63;;;5.50;99.90;;;;;;4968032;28;20046;-81
2022/12/25 07:49:03;;;;;;;13.02;7.15;;;5.40;99.90;;;;;;4986892;28;20039;-80
2022/12/25 07:51:29;;;;;;;12.85;6.63;;;5.40;99.90;;;;;;4988436;28;20069;-80
2022/12/25 07:53:55;;;;;;;16.25;7.35;;;5.40;99.90;;;;;;4983724;28;20037;-80
2022/12/25 07:56:39;;;;;;;13.32;7.55;;;5.40;99.90;;;;;;4988588;28;20045;-80
2022/12/25 07:59:05;;;;;;;15.65;7.72;;;5.50;99.90;;;;;;4985502;28;20034;-80
2022/12/25 08:01:31;;;;;;;13.75;7.50;;;5.50;99.90;;;;;;4967400;28;20077;-82
2022/12/25 08:03:59;;;;;;;14.57;7.25;;;5.50;99.90;;;;;;4970669;28;20038;-80
2022/12/25 08:06:29;;;;;;;15.43;8.52;;;5.50;99.90;;;;;;4985857;28;20038;-81
2022/12/25 08:09:04;;;;;;;14.63;7.90;;;5.40;99.90;;;;;;4988123;28;20506;-81
2022/12/25 08:11:30;;;;;;;13.52;7.40;;;5.40;99.90;;;;;;4988326;28;20527;-80
2022/12/25 08:13:56;;;;;;;14.18;7.50;;;5.40;99.90;;;;;;4985285;28;20039;-79
2022/12/25 08:16:22;;;;;;;13.27;7.13;;;5.40;99.90;;;;;;5010294;28;20026;-80
2022/12/25 08:18:48;;;;;;;13.57;8.27;;;5.40;99.90;;;;;;4992851;28;20045;-80
2022/12/25 08:21:14;;;;;;;14.48;8.23;;;5.40;99.90;;;;;;4988951;28;20039;-79
2022/12/25 08:23:43;;;;;;;14.00;7.82;;;5.40;99.90;;;;;;4995092;28;20498;-80
2022/12/25 08:26:19;;;;;;;15.88;8.20;;;5.40;99.90;;;;;;4989848;28;20018;-80
2022/12/25 08:28:46;;;;;;;19.38;8.27;;;5.40;99.90;;;;;;4982123;28;20019;-80
2022/12/25 08:31:16;;;;;;;14.15;7.15;;;5.50;99.90;;;;;;4989004;28;20113;-80
2022/12/25 08:33:43;;;;;;;15.55;8.48;;;5.50;99.90;;;;;;4976208;28;20034;-82
2022/12/25 08:36:10;;;;;;;15.77;8.85;;;5.50;99.90;;;;;;4980830;28;20030;-80
2022/12/25 08:38:36;;;;;;;16.63;8.40;;;5.50;99.90;;;;;;5000628;28;20031;-80
2022/12/25 08:41:02;;;;;;;20.70;9.02;;;5.50;99.90;;;;;;4992045;28;20113;-80
2022/12/25 08:43:28;;;;;;;20.65;10.15;;;5.50;99.90;;;;;;4979250;28;20144;-81
2022/12/25 08:45:54;;;;;;;23.17;10.15;;;5.60;99.90;;;;;;4975622;28;20070;-78
2022/12/25 08:48:19;;;;;;;19.15;10.40;;;5.60;99.90;;;;;;4971108;28;20030;-79
2022/12/25 08:50:47;;;;;;;22.25;10.38;;;5.60;99.90;;;;;;4990580;28;20026;-78
2022/12/25 08:53:13;;;;;;;22.02;11.13;;;5.70;99.90;;;;;;5005971;28;20027;-79
2022/12/25 08:55:39;;;;;;;21.67;11.38;;;5.70;99.90;;;;;;4984587;28;20086;-79
2022/12/25 08:58:05;;;;;;;22.63;11.23;;;5.70;99.90;;;;;;4985289;28;20605;-80
2022/12/25 09:00:31;;;;;;;21.25;10.68;;;5.80;99.90;;;;;;4986946;28;20034;-78
2022/12/25 09:02:57;;;;;;;21.45;11.27;;;5.80;99.90;;;;;;4985685;28;20034;-79
2022/12/25 09:05:23;;;;;;;24.70;11.00;;;5.90;99.90;;;;;;4981864;28;20035;-80
2022/12/25 09:07:49;;;;;;;24.15;10.73;;;5.90;99.90;;;;;;4985219;28;20487;-80
2022/12/25 09:10:15;;;;;;;22.75;10.88;;;6.00;99.90;;;;;;4986182;28;20030;-79
2022/12/25 09:12:41;;;;;;;23.88;11.50;;;6.00;99.90;;;;;;4982201;28;20045;-79
2022/12/25 09:15:07;;;;;;;22.27;11.07;;;6.10;99.90;;;;;;4977037;28;20038;-77
2022/12/25 09:17:33;;;;;;;22.30;11.18;;;6.10;99.90;;;;;;4978112;28;20042;-79
2022/12/25 09:19:59;;;;;;;24.55;11.90;;;6.10;99.90;;;;;;4967176;28;20030;-78
2022/12/25 09:22:25;;;;;;;24.80;12.20;;;6.20;99.90;;;;;;4982838;28;20114;-77
2022/12/25 09:24:50;;;;;;;19.77;10.52;;;6.10;99.90;;;;;;4986075;28;20034;-78
2022/12/25 09:27:16;;;;;;;21.27;10.80;;;6.30;99.90;;;;;;4990665;28;20033;-77
2022/12/25 09:29:42;;;;;;;22.92;11.30;;;6.30;99.90;;;;;;4989734;28;20034;-78
2022/12/25 09:32:08;;;;;;;21.77;10.93;;;6.30;99.90;;;;;;4991240;28;20026;-78
2022/12/25 09:34:34;;;;;;;20.73;10.30;;;6.30;99.90;;;;;;4973970;28;20035;-78
2022/12/25 09:37:00;;;;;;;26.35;12.20;;;6.40;99.90;;;;;;4986356;28;20507;-78
2022/12/25 09:39:27;;;;;;;22.48;12.10;;;6.40;99.90;;;;;;4981640;28;20033;-79
2022/12/25 09:42:12;;;;;;;23.30;12.18;;;6.40;99.90;;;;;;4996887;28;20056;-78
2022/12/25 09:44:49;;;;;;;20.52;11.85;;;6.50;99.90;;;;;;4983221;28;20022;-79
2022/12/25 09:47:20;;;;;;;21.65;11.02;;;6.50;99.90;;;;;;4984418;28;20125;-78
2022/12/25 09:50:00;;;;;;;23.90;12.05;;;6.60;99.90;;;;;;4975620;28;20030;-80
2022/12/25 09:52:59;;;;;;;24.27;11.63;;;6.60;99.90;;;;;;4987271;28;20030;-78
2022/12/25 09:55:29;;;;;;;22.85;11.93;;;6.70;99.90;;;;;;4982856;28;20042;-78
2022/12/25 09:57:59;;;;;;;24.20;12.07;;;6.70;99.90;;;;;;4970942;28;20043;-79
2022/12/25 10:00:36;;;;;;;22.98;12.27;;;6.70;99.90;;;;;;4989044;28;20030;-78
2022/12/25 10:03:30;;;;;;;22.33;12.18;;;6.80;99.90;;;;;;4989365;28;20050;-79
2022/12/25 10:06:06;;;;;;;22.85;12.52;;;6.80;99.90;;;;;;4990963;28;20103;-78
2022/12/25 10:08:51;;;;;;;25.25;12.13;;;6.90;99.90;;;;;;4986510;28;20055;-78
2022/12/25 10:11:35;;;;;;;20.85;11.13;;;6.90;99.90;;;;;;4994135;28;20106;-79
2022/12/25 10:14:13;;;;;;;20.17;12.25;;;7.00;99.90;;;;;;4983682;28;20093;-79
2022/12/25 10:16:39;;;;;;;20.88;11.70;;;7.00;99.90;;;;;;4986471;28;20035;-80
2022/12/25 10:19:30;;;;;;;17.88;10.50;;;7.10;99.90;;;;;;4987952;28;20030;-78
2022/12/25 10:22:00;;;;;;;19.60;10.68;;;7.10;99.90;;;;;;4988371;28;20023;-77
2022/12/25 10:24:41;;;;;;;16.15;10.07;;;7.10;99.90;;;;;;5003905;28;20121;-78
2022/12/25 10:27:18;;;;;;;16.45;10.40;;;7.20;99.90;;;;;;4985777;28;20026;-78
2022/12/25 10:29:48;;;;;;;13.75;9.18;;;7.20;99.90;;;;;;4969991;28;20106;-78
2022/12/25 10:32:14;;;;;;;15.95;10.13;;;7.20;99.90;;;;;;4985635;28;20045;-76
2022/12/25 10:34:42;;;;;;;16.63;9.90;;;7.20;99.90;;;;;;4985897;28;20022;-81
2022/12/25 10:37:10;;;;;;;12.95;7.63;;;7.30;99.90;;;;;;4979201;28;20046;-77
2022/12/25 10:39:36;;;;;;;12.85;8.20;;;7.30;99.90;;;;;;4981936;28;20045;-79
2022/12/25 10:42:14;;;;;;;14.13;7.22;;;7.40;99.90;;;;;;4982158;28;20430;-77
2022/12/25 10:44:52;;;;;;;10.88;7.13;;;7.50;99.90;;;;;;4982856;28;20033;-78
2022/12/25 10:47:26;;;;;;;12.80;7.63;;;7.60;99.90;;;;;;4984715;28;20022;-77
2022/12/25 10:49:53;;;;;;;12.52;7.00;;;7.70;99.90;;;;;;4998760;28;20026;-77
2022/12/25 10:52:21;;;;;;;11.10;6.53;;;7.70;99.90;;;;;;4985439;28;20088;-78
2022/12/25 10:54:47;;;;;;;7.88;5.05;;;7.80;99.90;;;;;;4980314;28;20030;-78
2022/12/25 10:57:15;;;;;;;6.32;5.13;;;7.80;99.90;;;;;;4983700;28;20030;-80
2022/12/25 10:59:50;;;;;;;6.55;4.80;;;7.70;99.90;;;;;;4988126;28;20070;-78
2022/12/25 11:02:29;;;;;;;8.00;5.33;;;7.80;99.90;;;;;;4987577;28;20070;-79
2022/12/25 11:05:07;;;;;;;6.75;4.93;;;7.80;99.90;;;;;;4988171;28;20317;-77
2022/12/25 11:07:49;;;;;;;7.85;5.22;;;7.80;99.90;;;;;;5009184;28;20034;-78
2022/12/25 11:10:20;;;;;;;6.45;4.72;;;7.80;99.90;;;;;;4980958;28;20054;-78
2022/12/25 11:12:46;;;;;;;7.13;4.53;;;7.80;99.90;;;;;;4975384;28;20104;-79
2022/12/25 11:15:30;;;;;;;5.50;4.63;;;7.80;99.90;;;;;;4993528;28;20034;-77
2022/12/25 11:17:56;;;;;;;5.70;4.20;;;7.80;99.90;;;;;;4991579;28;20033;-78
2022/12/25 11:20:23;;;;;;;6.20;3.70;;;7.90;99.90;;;;;;4972618;28;20466;-77
2022/12/25 11:22:49;;;;;;;4.93;3.85;;;7.90;99.90;;;;;;4988140;28;20061;-78
2022/12/25 11:25:27;;;;;;;5.45;3.67;;;7.80;99.90;;;;;;4991412;28;20390;-77
2022/12/25 11:28:01;;;;;;;7.20;4.05;;;7.90;99.90;;;;;;4972541;28;20062;-77
2022/12/25 11:30:32;;;;;;;3.97;3.00;;;8.00;99.90;;;;;;4986920;28;20034;-78
2022/12/25 11:33:03;;;;;;;3.38;3.08;;;8.10;99.90;;;;;;4990926;28;20174;-78
2022/12/25 11:35:33;;;;;;;5.40;3.00;;;8.10;99.90;;;;;;4954576;28;20530;-77
2022/12/25 11:37:59;;;;;;;5.22;3.33;;;8.10;99.90;;;;;;4990513;28;20712;-78
2022/12/25 11:40:45;;;;;;;4.15;2.75;;;8.10;99.90;;;;;;4985155;28;20365;-77
2022/12/25 11:43:22;;;;;;;3.28;2.72;;;8.20;99.90;;;;;;4970017;28;20750;-78
2022/12/25 11:45:53;;;;;;;3.75;2.60;;;8.20;99.90;;;;;;5002277;28;20266;-78
2022/12/25 11:48:30;;;;;;;3.85;2.95;;;8.20;99.90;;;;;;4992174;28;20026;-78
2022/12/25 11:50:58;;;;;;;2.97;2.70;;;8.20;99.90;;;;;;4990370;28;20030;-78
2022/12/25 11:53:33;;;;;;;2.88;2.58;;;8.20;99.90;;;;;;4988339;28;20038;-78
2022/12/25 11:56:06;;;;;;;7.13;3.03;;;8.20;99.90;;;;;;4989459;28;20037;-79
2022/12/25 11:58:42;;;;;;;3.92;2.70;;;8.20;99.90;;;;;;4992350;28;20037;-78
2022/12/25 12:01:35;;;;;;;3.65;2.15;;;8.20;99.90;;;;;;4983833;28;20201;-77
2022/12/25 12:04:05;;;;;;;3.25;2.60;;;8.20;99.90;;;;;;4989853;28;20436;-78
2022/12/25 12:06:57;;;;;;;3.95;2.33;;;8.20;99.90;;;;;;4982275;28;20054;-78
2022/12/25 12:09:47;;;;;;;4.63;2.70;;;8.20;99.90;;;;;;4990553;28;20430;-78
2022/12/25 12:12:39;;;;;;;2.65;2.45;;;8.30;99.90;;;;;;4980465;28;20084;-78
2022/12/25 12:15:24;;;;;;;4.03;2.65;;;8.30;99.90;;;;;;4976138;28;20125;-77
2022/12/25 12:17:50;;;;;;;3.47;2.25;;;8.30;99.90;;;;;;4988320;28;20608;-77
2022/12/25 12:20:31;;;;;;;3.78;2.58;;;8.30;99.90;;;;;;4982905;28;20069;-78
2022/12/25 12:22:59;;;;;;;5.10;2.63;;;8.30;99.90;;;;;;4974385;28;20118;-78
2022/12/25 12:25:25;;;;;;;3.30;2.60;;;8.40;99.90;;;;;;5015327;28;20042;-78
2022/12/25 12:27:55;;;;;;;2.65;2.20;;;8.40;99.90;;;;;;4988274;28;20710;-77
2022/12/25 12:30:34;;;;;;;3.22;2.45;;;8.50;99.90;;;;;;4984343;28;20026;-77
2022/12/25 12:33:02;;;;;;;3.70;2.55;;;8.50;99.90;;;;;;4984347;28;20022;-76
2022/12/25 12:35:35;;;;;;;4.72;2.42;;;8.50;99.90;;;;;;4985263;28;20144;-77
2022/12/25 12:38:06;;;;;;;3.38;2.38;;;8.50;99.90;;;;;;4990820;28;20132;-78
2022/12/25 12:40:39;;;;;;;4.22;2.65;;;8.50;99.90;;;;;;4984626;28;20049;-76
2022/12/25 12:43:21;;;;;;;4.93;2.50;;;8.50;99.90;;;;;;4982257;28;20649;-77
2022/12/25 12:46:14;;;;;;;2.80;2.47;;;8.50;99.90;;;;;;4980616;28;20050;-78
2022/12/25 12:48:43;;;;;;;4.43;2.50;;;8.50;99.90;;;;;;4971726;28;20046;-75
2022/12/25 12:51:11;;;;;;;7.05;4.03;;;8.50;99.90;;;;;;5010866;28;20027;-76
2022/12/25 12:53:39;;;;;;;3.00;2.70;;;8.40;99.90;;;;;;4982006;28;20042;-77
2022/12/25 12:56:16;;;;;;;6.00;2.42;;;8.40;99.90;;;;;;4986438;28;20038;-77
2022/12/25 12:58:49;;;;;;;2.60;2.40;;;8.40;99.90;;;;;;4983472;28;20526;-77
2022/12/25 13:02:02;;;;;;;5.93;2.38;;;8.40;99.90;;;;;;4999833;28;20042;-79
2022/12/25 13:05:03;;;;;;;2.92;2.47;;;8.50;99.90;;;;;;4919376;29;20079;-78
2022/12/25 13:07:46;;;;;;;3.70;2.67;;;8.50;99.90;;;;;;4983864;28;21289;-77
2022/12/25 13:10:31;;;;;;;5.00;2.90;;;8.60;99.90;;;;;;4984533;28;20105;-78
2022/12/25 13:13:01;;;;;;;4.80;2.70;;;8.60;99.90;;;;;;4981632;28;20033;-78
2022/12/25 13:15:31;;;;;;;3.72;2.95;;;8.60;99.90;;;;;;4987125;28;20064;-80
2022/12/25 13:18:08;;;;;;;4.00;3.05;;;8.60;99.90;;;;;;4984933;28;20572;-78
2022/12/25 13:20:56;;;;;;;3.88;2.85;;;8.60;99.90;;;;;;4983588;28;20036;-78
2022/12/25 13:23:27;;;;;;;3.83;2.72;;;8.60;99.90;;;;;;4985172;28;20041;-78
2022/12/25 13:25:58;;;;;;;3.08;2.42;;;8.60;99.90;;;;;;4985383;28;20121;-77
2022/12/25 13:28:29;;;;;;;6.43;2.70;;;8.60;99.90;;;;;;4984762;28;20403;-78
2022/12/25 13:31:25;;;;;;;4.95;2.35;;;8.50;99.90;;;;;;5000408;28;20041;-77
2022/12/25 13:33:54;;;;;;;7.13;2.78;;;8.50;99.90;;;;;;4971255;28;20043;-77
2022/12/25 13:36:39;;;;;;;4.53;2.22;;;8.50;99.90;;;;;;4986230;28;20097;-77
2022/12/25 13:39:12;;;;;;;9.02;4.45;;;8.50;99.90;;;;;;4984454;28;20066;-76
2022/12/25 13:44:46;;;;;;;5.65;2.90;;;8.50;99.90;;;;;;4982871;28;20138;-77
2022/12/25 13:47:16;;;;;;;4.05;2.60;;;8.40;99.90;;;;;;4960556;28;20074;-77
2022/12/25 13:49:45;;;;;;;2.83;2.10;;;8.50;99.90;;;;;;4984625;28;20050;-76
2022/12/25 13:52:14;;;;;;;3.40;2.25;;;8.50;99.90;;;;;;4985352;28;20069;-77
2022/12/25 13:54:55;;;;;;;7.30;3.17;;;8.50;99.90;;;;;;4979502;28;20487;-77
2022/12/25 13:57:25;;;;;;;3.45;2.42;;;8.50;99.90;;;;;;4979876;28;20045;-77
2022/12/25 13:59:51;;;;;;;4.45;2.60;;;8.60;99.90;;;;;;4967773;28;20418;-77
2022/12/25 14:02:22;;;;;;;5.78;2.60;;;8.50;99.90;;;;;;4982830;28;20031;-76
2022/12/25 14:04:47;;;;;;;6.30;2.33;;;8.60;99.90;;;;;;4981865;28;20034;-77
2022/12/25 14:07:22;;;;;;;6.55;2.65;;;8.60;99.90;;;;;;4965352;28;20081;-78
2022/12/25 14:09:57;;;;;;;3.03;2.40;;;8.60;99.90;;;;;;4996450;28;20548;-77
2022/12/25 14:12:24;;;;;;;3.08;2.00;;;8.60;99.90;;;;;;4979275;28;20692;-77
2022/12/25 14:14:51;;;;;;;3.90;2.08;;;8.60;99.90;;;;;;4984669;28;20068;-77
2022/12/25 14:17:17;;;;;;;4.68;2.00;;;8.70;99.90;;;;;;4980669;28;20049;-77
2022/12/25 14:19:43;;;;;;;4.47;2.30;;;8.70;99.90;;;;;;4977264;28;20153;-77
2022/12/25 14:22:21;;;;;;;2.45;1.83;;;8.80;99.90;;;;;;4973218;28;20113;-77
2022/12/25 14:24:47;;;;;;;6.53;2.35;;;8.80;99.90;;;;;;4965286;28;20562;-77
2022/12/25 14:27:25;;;;;;;4.78;3.13;;;8.80;99.90;;;;;;4991421;28;20026;-77
2022/12/25 14:29:54;;;;;;;2.45;2.00;;;8.80;99.90;;;;;;4975093;28;20049;-76
2022/12/25 14:32:26;;;;;;;14.52;8.13;;;8.80;99.90;;;;;;4980693;28;20022;-77
2022/12/25 14:35:00;;;;;;;5.32;2.85;;;8.80;99.90;;;;;;4981852;28;20030;-77
2022/12/25 14:37:29;;;;;;;10.10;5.75;;;8.80;99.90;;;;;;4996209;28;20042;-76
2022/12/25 14:39:58;;;;;;;4.55;2.88;;;8.70;99.90;;;;;;4982632;28;20038;-77
2022/12/25 14:42:29;;;;;;;2.45;1.60;;;8.80;99.90;;;;;;4982901;28;20034;-79
2022/12/25 14:45:02;;;;;;;7.90;4.95;;;8.70;99.90;;;;;;4984721;28;20050;-78
2022/12/25 14:47:28;;;;;;;3.65;1.70;;;8.70;99.90;;;;;;4999196;28;20125;-76
2022/12/25 14:49:54;;;;;;;1.95;1.80;;;8.70;99.90;;;;;;4963568;28;20053;-75
2022/12/25 14:52:30;;;;;;;2.17;1.63;;;8.60;99.90;;;;;;4982153;28;20143;-77